sensor_id;sensor_type;location;lat;lon;timestamp;temperature;humidity
10384;DHT22;5238;43.508;4.980;2022-12-24T00:00:28;14.00;91.30
10384;DHT22;5238;43.508;4.980;2022-12-24T00:03:14;14.00;91.30
10384;DHT22;5238;43.508;4.980;2022-12-24T00:05:53;14.00;91.30
10384;DHT22;5238;43.508;4.980;2022-12-24T00:08:22;13.90;91.30
10384;DHT22;5238;43.508;4.980;2022-12-24T00:10:55;13.90;91.30
10384;DHT22;5238;43.508;4.980;2022-12-24T00:13:22;13.90;91.30
10384;DHT22;5238;43.508;4.980;2022-12-24T00:15:50;13.80;91.30
10384;DHT22;5238;43.508;4.980;2022-12-24T00:18:19;13.80;91.30
10384;DHT22;5238;43.508;4.980;2022-12-24T00:20:47;13.80;91.30
10384;DHT22;5238;43.508;4.980;2022-12-24T00:23:16;13.80;91.30
10384;DHT22;5238;43.508;4.980;2022-12-24T00:25:44;13.70;91.30
10384;DHT22;5238;43.508;4.980;2022-12-24T00:28:16;13.70;91.30
10384;DHT22;5238;43.508;4.980;2022-12-24T00:30:46;13.70;91.30
10384;DHT22;5238;43.508;4.980;2022-12-24T00:33:13;13.60;91.30
10384;DHT22;5238;43.508;4.980;2022-12-24T00:35:49;13.60;91.30
10384;DHT22;5238;43.508;4.980;2022-12-24T00:38:31;13.60;91.30
10384;DHT22;5238;43.508;4.980;2022-12-24T00:41:16;13.50;91.30
10384;DHT22;5238;43.508;4.980;2022-12-24T00:44:12;13.50;91.30
10384;DHT22;5238;43.508;4.980;2022-12-24T00:46:40;13.40;91.30
10384;DHT22;5238;43.508;4.980;2022-12-24T00:49:20;13.40;91.30
10384;DHT22;5238;43.508;4.980;2022-12-24T00:51:49;13.30;91.30
10384;DHT22;5238;43.508;4.980;2022-12-24T00:54:16;13.30;91.30
10384;DHT22;5238;43.508;4.980;2022-12-24T00:56:54;13.30;91.30
10384;DHT22;5238;43.508;4.980;2022-12-24T00:59:22;13.20;91.30
10384;DHT22;5238;43.508;4.980;2022-12-24T01:01:49;13.20;91.30
10384;DHT22;5238;43.508;4.980;2022-12-24T01:04:22;13.20;91.30
10384;DHT22;5238;43.508;4.980;2022-12-24T01:07:14;13.10;91.30
10384;DHT22;5238;43.508;4.980;2022-12-24T01:09:41;13.10;91.30
10384;DHT22;5238;43.508;4.980;2022-12-24T01:12:17;13.10;91.30
10384;DHT22;5238;43.508;4.980;2022-12-24T01:14:44;13.10;91.30
10384;DHT22;5238;43.508;4.980;2022-12-24T01:17:12;13.00;91.30
10384;DHT22;5238;43.508;4.980;2022-12-24T01:19:39;13.00;91.30
10384;DHT22;5238;43.508;4.980;2022-12-24T01:22:09;13.00;91.30
10384;DHT22;5238;43.508;4.980;2022-12-24T01:24:59;12.90;91.30
10384;DHT22;5238;43.508;4.980;2022-12-24T01:27:26;12.90;91.30
10384;DHT22;5238;43.508;4.980;2022-12-24T01:29:55;12.90;91.30
10384;DHT22;5238;43.508;4.980;2022-12-24T01:32:22;12.90;91.30
10384;DHT22;5238;43.508;4.980;2022-12-24T01:34:49;12.90;91.30
10384;DHT22;5238;43.508;4.980;2022-12-24T01:37:23;12.80;91.30
10384;DHT22;5238;43.508;4.980;2022-12-24T01:39:50;12.80;91.30
10384;DHT22;5238;43.508;4.980;2022-12-24T01:42:43;12.80;91.30
10384;DHT22;5238;43.508;4.980;2022-12-24T01:45:42;12.80;91.30
10384;DHT22;5238;43.508;4.980;2022-12-24T01:48:24;12.80;91.30
10384;DHT22;5238;43.508;4.980;2022-12-24T01:51:16;12.80;91.30
10384;DHT22;5238;43.508;4.980;2022-12-24T01:54:12;12.70;91.30
10384;DHT22;5238;43.508;4.980;2022-12-24T01:56:50;12.70;91.30
10384;DHT22;5238;43.508;4.980;2022-12-24T01:59:19;12.70;91.30
10384;DHT22;5238;43.508;4.980;2022-12-24T02:02:16;12.70;91.30
10384;DHT22;5238;43.508;4.980;2022-12-24T02:04:50;12.70;91.30
10384;DHT22;5238;43.508;4.980;2022-12-24T02:07:22;12.70;91.30
10384;DHT22;5238;43.508;4.980;2022-12-24T02:10:03;12.70;91.30
10384;DHT22;5238;43.508;4.980;2022-12-24T02:12:46;12.70;91.30
10384;DHT22;5238;43.508;4.980;2022-12-24T02:15:44;12.70;91.30
10384;DHT22;5238;43.508;4.980;2022-12-24T02:18:33;12.70;91.30
10384;DHT22;5238;43.508;4.980;2022-12-24T02:21:53;12.60;91.30
10384;DHT22;5238;43.508;4.980;2022-12-24T02:27:56;12.60;91.30
10384;DHT22;5238;43.508;4.980;2022-12-24T02:33:59;12.60;91.30
10384;DHT22;5238;43.508;4.980;2022-12-24T02:36:48;12.60;91.30
10384;DHT22;5238;43.508;4.980;2022-12-24T02:39:52;12.50;91.30
10384;DHT22;5238;43.508;4.980;2022-12-24T02:42:38;12.50;91.30
10384;DHT22;5238;43.508;4.980;2022-12-24T02:45:22;12.50;91.30
10384;DHT22;5238;43.508;4.980;2022-12-24T02:48:14;12.50;91.30
10384;DHT22;5238;43.508;4.980;2022-12-24T02:51:08;12.50;91.30
10384;DHT22;5238;43.508;4.980;2022-12-24T02:53:44;12.40;91.30
10384;DHT22;5238;43.508;4.980;2022-12-24T02:56:56;12.50;91.30
10384;DHT22;5238;43.508;4.980;2022-12-24T03:00:04;12.40;91.30
10384;DHT22;5238;43.508;4.980;2022-12-24T03:02:51;12.40;91.30
10384;DHT22;5238;43.508;4.980;2022-12-24T03:05:38;12.40;91.30
10384;DHT22;5238;43.508;4.980;2022-12-24T03:08:27;12.30;91.30
10384;DHT22;5238;43.508;4.980;2022-12-24T03:11:11;12.30;91.30
10384;DHT22;5238;43.508;4.980;2022-12-24T03:13:43;12.30;91.30
10384;DHT22;5238;43.508;4.980;2022-12-24T03:16:16;12.20;91.30
10384;DHT22;5238;43.508;4.980;2022-12-24T03:18:49;12.20;91.30
10384;DHT22;5238;43.508;4.980;2022-12-24T03:21:37;12.20;91.30
10384;DHT22;5238;43.508;4.980;2022-12-24T03:24:09;12.20;91.30
10384;DHT22;5238;43.508;4.980;2022-12-24T03:26:51;12.20;91.30
10384;DHT22;5238;43.508;4.980;2022-12-24T03:29:19;12.20;91.30
10384;DHT22;5238;43.508;4.980;2022-12-24T03:31:48;12.20;91.30
10384;DHT22;5238;43.508;4.980;2022-12-24T03:34:16;12.20;91.30
10384;DHT22;5238;43.508;4.980;2022-12-24T03:37:01;12.20;91.30
10384;DHT22;5238;43.508;4.980;2022-12-24T03:39:29;12.20;91.30
10384;DHT22;5238;43.508;4.980;2022-12-24T03:41:58;12.20;91.30
10384;DHT22;5238;43.508;4.980;2022-12-24T03:44:28;12.20;91.30
10384;DHT22;5238;43.508;4.980;2022-12-24T03:47:07;12.20;91.30
10384;DHT22;5238;43.508;4.980;2022-12-24T03:49:34;12.20;91.30
10384;DHT22;5238;43.508;4.980;2022-12-24T03:52:24;12.20;91.30
10384;DHT22;5238;43.508;4.980;2022-12-24T03:54:57;12.20;91.30
10384;DHT22;5238;43.508;4.980;2022-12-24T03:57:25;12.20;91.30
10384;DHT22;5238;43.508;4.980;2022-12-24T03:59:52;12.10;91.30
10384;DHT22;5238;43.508;4.980;2022-12-24T04:02:20;12.10;91.30
10384;DHT22;5238;43.508;4.980;2022-12-24T04:04:50;12.10;91.30
10384;DHT22;5238;43.508;4.980;2022-12-24T04:07:46;12.10;91.30
10384;DHT22;5238;43.508;4.980;2022-12-24T04:10:32;12.10;91.30
10384;DHT22;5238;43.508;4.980;2022-12-24T04:13:08;12.10;91.30
10384;DHT22;5238;43.508;4.980;2022-12-24T04:15:43;12.10;91.30
10384;DHT22;5238;43.508;4.980;2022-12-24T04:20:55;12.10;91.30
10384;DHT22;5238;43.508;4.980;2022-12-24T04:23:25;12.10;91.30
10384;DHT22;5238;43.508;4.980;2022-12-24T04:26:25;12.10;91.30
10384;DHT22;5238;43.508;4.980;2022-12-24T04:28:55;12.10;91.30
10384;DHT22;5238;43.508;4.980;2022-12-24T04:31:35;12.10;91.30
10384;DHT22;5238;43.508;4.980;2022-12-24T04:34:12;12.10;91.30
10384;DHT22;5238;43.508;4.980;2022-12-24T04:36:47;12.10;91.30
10384;DHT22;5238;43.508;4.980;2022-12-24T04:39:18;12.10;91.30
10384;DHT22;5238;43.508;4.980;2022-12-24T04:41:59;12.10;91.30
10384;DHT22;5238;43.508;4.980;2022-12-24T04:44:26;12.10;91.30
10384;DHT22;5238;43.508;4.980;2022-12-24T04:47:06;12.10;91.30
10384;DHT22;5238;43.508;4.980;2022-12-24T04:49:36;12.00;91.30
10384;DHT22;5238;43.508;4.980;2022-12-24T04:52:10;12.00;91.30
10384;DHT22;5238;43.508;4.980;2022-12-24T04:54:53;12.00;91.30
10384;DHT22;5238;43.508;4.980;2022-12-24T04:57:36;12.00;91.30
10384;DHT22;5238;43.508;4.980;2022-12-24T05:00:05;12.00;91.30
10384;DHT22;5238;43.508;4.980;2022-12-24T05:02:36;12.00;91.30
10384;DHT22;5238;43.508;4.980;2022-12-24T05:05:24;12.00;91.30
10384;DHT22;5238;43.508;4.980;2022-12-24T05:07:58;11.90;91.30
10384;DHT22;5238;43.508;4.980;2022-12-24T05:10:27;11.90;91.30
10384;DHT22;5238;43.508;4.980;2022-12-24T05:13:00;11.90;91.30
10384;DHT22;5238;43.508;4.980;2022-12-24T05:15:27;11.90;91.30
10384;DHT22;5238;43.508;4.980;2022-12-24T05:18:20;11.90;91.30
10384;DHT22;5238;43.508;4.980;2022-12-24T05:21:08;11.90;91.30
10384;DHT22;5238;43.508;4.980;2022-12-24T05:23:51;11.80;91.30
10384;DHT22;5238;43.508;4.980;2022-12-24T05:26:40;11.80;91.30
10384;DHT22;5238;43.508;4.980;2022-12-24T05:29:09;11.80;91.30
10384;DHT22;5238;43.508;4.980;2022-12-24T05:31:52;11.80;91.30
10384;DHT22;5238;43.508;4.980;2022-12-24T05:34:49;11.70;91.30
10384;DHT22;5238;43.508;4.980;2022-12-24T05:37:19;11.70;91.30
10384;DHT22;5238;43.508;4.980;2022-12-24T05:39:52;11.70;91.30
10384;DHT22;5238;43.508;4.980;2022-12-24T05:42:28;11.70;91.30
10384;DHT22;5238;43.508;4.980;2022-12-24T05:44:58;11.60;91.30
10384;DHT22;5238;43.508;4.980;2022-12-24T05:47:28;11.60;91.30
10384;DHT22;5238;43.508;4.980;2022-12-24T05:49:56;11.60;91.30
10384;DHT22;5238;43.508;4.980;2022-12-24T05:52:26;11.60;91.30
10384;DHT22;5238;43.508;4.980;2022-12-24T05:55:08;11.50;91.30
10384;DHT22;5238;43.508;4.980;2022-12-24T05:57:38;11.50;91.30
10384;DHT22;5238;43.508;4.980;2022-12-24T06:00:19;11.50;91.30
10384;DHT22;5238;43.508;4.980;2022-12-24T06:02:46;11.50;91.30
10384;DHT22;5238;43.508;4.980;2022-12-24T06:05:27;11.50;91.30
10384;DHT22;5238;43.508;4.980;2022-12-24T06:07:54;11.50;91.30
10384;DHT22;5238;43.508;4.980;2022-12-24T06:10:27;11.50;91.30
10384;DHT22;5238;43.508;4.980;2022-12-24T06:12:57;11.40;91.30
10384;DHT22;5238;43.508;4.980;2022-12-24T06:15:27;11.40;91.30
10384;DHT22;5238;43.508;4.980;2022-12-24T06:17:54;11.40;91.30
10384;DHT22;5238;43.508;4.980;2022-12-24T06:20:22;11.40;91.30
10384;DHT22;5238;43.508;4.980;2022-12-24T06:23:01;11.40;91.30
10384;DHT22;5238;43.508;4.980;2022-12-24T06:25:28;11.40;91.30
10384;DHT22;5238;43.508;4.980;2022-12-24T06:27:59;11.40;91.30
10384;DHT22;5238;43.508;4.980;2022-12-24T06:30:40;11.30;91.30
10384;DHT22;5238;43.508;4.980;2022-12-24T06:33:07;11.30;91.30
10384;DHT22;5238;43.508;4.980;2022-12-24T06:35:51;11.30;91.30
10384;DHT22;5238;43.508;4.980;2022-12-24T06:38:37;11.30;91.30
10384;DHT22;5238;43.508;4.980;2022-12-24T06:41:43;11.30;91.30
10384;DHT22;5238;43.508;4.980;2022-12-24T06:44:09;11.30;91.30
10384;DHT22;5238;43.508;4.980;2022-12-24T06:46:44;11.20;91.30
10384;DHT22;5238;43.508;4.980;2022-12-24T06:49:19;11.20;91.30
10384;DHT22;5238;43.508;4.980;2022-12-24T06:51:46;11.20;91.30
10384;DHT22;5238;43.508;4.980;2022-12-24T06:54:13;11.20;91.30
10384;DHT22;5238;43.508;4.980;2022-12-24T06:56:57;11.20;91.30
10384;DHT22;5238;43.508;4.980;2022-12-24T06:59:34;11.10;91.30
10384;DHT22;5238;43.508;4.980;2022-12-24T07:02:15;11.10;91.30
10384;DHT22;5238;43.508;4.980;2022-12-24T07:04:43;11.10;91.30
10384;DHT22;5238;43.508;4.980;2022-12-24T07:07:10;11.10;91.30
10384;DHT22;5238;43.508;4.980;2022-12-24T07:09:40;11.00;91.30
10384;DHT22;5238;43.508;4.980;2022-12-24T07:12:37;11.00;91.30
10384;DHT22;5238;43.508;4.980;2022-12-24T07:19:02;11.00;91.30
10384;DHT22;5238;43.508;4.980;2022-12-24T07:25:23;11.00;91.30
10384;DHT22;5238;43.508;4.980;2022-12-24T07:27:54;11.00;91.30
10384;DHT22;5238;43.508;4.980;2022-12-24T07:30:28;11.00;91.30
10384;DHT22;5238;43.508;4.980;2022-12-24T07:32:55;11.00;91.30
10384;DHT22;5238;43.508;4.980;2022-12-24T07:35:24;11.00;91.30
10384;DHT22;5238;43.508;4.980;2022-12-24T07:38:00;11.00;91.30
10384;DHT22;5238;43.508;4.980;2022-12-24T07:40:34;11.00;91.30
10384;DHT22;5238;43.508;4.980;2022-12-24T07:43:10;11.00;91.30
10384;DHT22;5238;43.508;4.980;2022-12-24T07:45:47;11.10;91.30
10384;DHT22;5238;43.508;4.980;2022-12-24T07:48:21;11.10;91.30
10384;DHT22;5238;43.508;4.980;2022-12-24T07:51:14;11.10;91.30
10384;DHT22;5238;43.508;4.980;2022-12-24T07:53:48;11.20;91.30
10384;DHT22;5238;43.508;4.980;2022-12-24T07:56:16;11.20;91.30
10384;DHT22;5238;43.508;4.980;2022-12-24T07:58:43;11.20;91.30
10384;DHT22;5238;43.508;4.980;2022-12-24T08:01:22;11.40;91.30
10384;DHT22;5238;43.508;4.980;2022-12-24T08:04:14;11.80;91.30
10384;DHT22;5238;43.508;4.980;2022-12-24T08:06:56;12.30;91.30
10384;DHT22;5238;43.508;4.980;2022-12-24T08:09:23;12.80;91.30
10384;DHT22;5238;43.508;4.980;2022-12-24T08:11:59;13.00;91.30
10384;DHT22;5238;43.508;4.980;2022-12-24T08:14:41;13.10;91.30
10384;DHT22;5238;43.508;4.980;2022-12-24T08:17:22;13.10;91.30
10384;DHT22;5238;43.508;4.980;2022-12-24T08:20:13;13.10;91.30
10384;DHT22;5238;43.508;4.980;2022-12-24T08:22:49;13.10;91.30
10384;DHT22;5238;43.508;4.980;2022-12-24T08:25:19;13.10;91.30
10384;DHT22;5238;43.508;4.980;2022-12-24T08:28:16;13.10;91.30
10384;DHT22;5238;43.508;4.980;2022-12-24T08:30:50;13.20;91.30
10384;DHT22;5238;43.508;4.980;2022-12-24T08:33:32;13.20;91.30
10384;DHT22;5238;43.508;4.980;2022-12-24T08:36:13;13.30;91.30
10384;DHT22;5238;43.508;4.980;2022-12-24T08:38:50;13.40;91.30
10384;DHT22;5238;43.508;4.980;2022-12-24T08:41:37;13.50;91.30
10384;DHT22;5238;43.508;4.980;2022-12-24T08:44:07;13.60;91.30
10384;DHT22;5238;43.508;4.980;2022-12-24T08:46:40;13.60;91.30
10384;DHT22;5238;43.508;4.980;2022-12-24T08:49:08;13.70;91.30
10384;DHT22;5238;43.508;4.980;2022-12-24T08:51:38;13.80;91.30
10384;DHT22;5238;43.508;4.980;2022-12-24T08:54:15;13.90;91.30
10384;DHT22;5238;43.508;4.980;2022-12-24T08:56:49;14.00;91.30
10384;DHT22;5238;43.508;4.980;2022-12-24T08:59:18;14.10;91.30
10384;DHT22;5238;43.508;4.980;2022-12-24T09:01:45;14.20;91.30
10384;DHT22;5238;43.508;4.980;2022-12-24T09:04:37;14.30;91.30
10384;DHT22;5238;43.508;4.980;2022-12-24T09:07:08;14.40;91.30
10384;DHT22;5238;43.508;4.980;2022-12-24T09:09:50;14.50;91.30
10384;DHT22;5238;43.508;4.980;2022-12-24T09:12:28;14.60;91.30
10384;DHT22;5238;43.508;4.980;2022-12-24T09:15:28;14.80;91.30
10384;DHT22;5238;43.508;4.980;2022-12-24T09:17:49;14.90;91.30
10384;DHT22;5238;43.508;4.980;2022-12-24T09:20:32;15.00;91.30
10384;DHT22;5238;43.508;4.980;2022-12-24T09:23:05;15.20;91.30
10384;DHT22;5238;43.508;4.980;2022-12-24T09:25:34;15.30;91.30
10384;DHT22;5238;43.508;4.980;2022-12-24T09:28:08;15.50;91.30
10384;DHT22;5238;43.508;4.980;2022-12-24T09:30:38;15.70;91.30
10384;DHT22;5238;43.508;4.980;2022-12-24T09:33:22;15.80;91.30
10384;DHT22;5238;43.508;4.980;2022-12-24T09:36:13;16.00;91.30
10384;DHT22;5238;43.508;4.980;2022-12-24T09:38:58;16.20;91.30
10384;DHT22;5238;43.508;4.980;2022-12-24T09:42:06;16.40;91.30
10384;DHT22;5238;43.508;4.980;2022-12-24T09:45:08;16.60;91.30
10384;DHT22;5238;43.508;4.980;2022-12-24T09:47:44;16.90;91.30
10384;DHT22;5238;43.508;4.980;2022-12-24T09:50:39;17.10;91.30
10384;DHT22;5238;43.508;4.980;2022-12-24T09:53:16;17.30;91.30
10384;DHT22;5238;43.508;4.980;2022-12-24T09:55:56;17.60;91.30
10384;DHT22;5238;43.508;4.980;2022-12-24T09:58:45;17.80;91.30
10384;DHT22;5238;43.508;4.980;2022-12-24T10:01:17;18.00;91.30
10384;DHT22;5238;43.508;4.980;2022-12-24T10:04:03;18.10;91.30
10384;DHT22;5238;43.508;4.980;2022-12-24T10:07:17;18.20;91.30
10384;DHT22;5238;43.508;4.980;2022-12-24T10:10:18;18.30;91.30
10384;DHT22;5238;43.508;4.980;2022-12-24T10:13:03;18.30;91.30
10384;DHT22;5238;43.508;4.980;2022-12-24T10:15:49;18.30;91.30
10384;DHT22;5238;43.508;4.980;2022-12-24T10:18:47;18.30;91.30
10384;DHT22;5238;43.508;4.980;2022-12-24T10:22:51;18.30;91.30
10384;DHT22;5238;43.508;4.980;2022-12-24T10:24:58;18.40;91.30
10384;DHT22;5238;43.508;4.980;2022-12-24T10:27:38;18.50;91.30
10384;DHT22;5238;43.508;4.980;2022-12-24T10:30:15;18.50;91.30
10384;DHT22;5238;43.508;4.980;2022-12-24T10:32:54;18.50;91.30
10384;DHT22;5238;43.508;4.980;2022-12-24T10:35:42;18.80;91.30
10384;DHT22;5238;43.508;4.980;2022-12-24T10:38:11;18.90;91.30
10384;DHT22;5238;43.508;4.980;2022-12-24T10:40:42;18.70;91.30
10384;DHT22;5238;43.508;4.980;2022-12-24T10:43:19;18.60;91.30
10384;DHT22;5238;43.508;4.980;2022-12-24T10:45:57;18.40;91.30
10384;DHT22;5238;43.508;4.980;2022-12-24T10:48:39;18.40;91.30
10384;DHT22;5238;43.508;4.980;2022-12-24T10:51:24;18.40;91.30
10384;DHT22;5238;43.508;4.980;2022-12-24T10:54:10;18.40;91.30
10384;DHT22;5238;43.508;4.980;2022-12-24T10:56:54;18.50;91.30
10384;DHT22;5238;43.508;4.980;2022-12-24T10:59:24;18.50;91.30
10384;DHT22;5238;43.508;4.980;2022-12-24T11:01:52;18.50;91.30
10384;DHT22;5238;43.508;4.980;2022-12-24T11:04:50;18.50;91.30
10384;DHT22;5238;43.508;4.980;2022-12-24T11:07:20;18.40;91.30
10384;DHT22;5238;43.508;4.980;2022-12-24T11:09:58;18.40;91.30
10384;DHT22;5238;43.508;4.980;2022-12-24T11:12:26;18.40;91.30
10384;DHT22;5238;43.508;4.980;2022-12-24T11:15:01;18.40;91.30
10384;DHT22;5238;43.508;4.980;2022-12-24T11:17:29;18.40;91.30
10384;DHT22;5238;43.508;4.980;2022-12-24T11:20:21;18.40;91.30
10384;DHT22;5238;43.508;4.980;2022-12-24T11:26:09;18.50;91.30
10384;DHT22;5238;43.508;4.980;2022-12-24T11:28:37;18.50;91.30
10384;DHT22;5238;43.508;4.980;2022-12-24T11:31:16;18.50;91.30
10384;DHT22;5238;43.508;4.980;2022-12-24T11:33:46;18.50;91.30
10384;DHT22;5238;43.508;4.980;2022-12-24T11:36:23;18.50;91.30
10384;DHT22;5238;43.508;4.980;2022-12-24T11:38:53;18.60;91.30
10384;DHT22;5238;43.508;4.980;2022-12-24T11:41:35;18.60;91.30
10384;DHT22;5238;43.508;4.980;2022-12-24T11:44:03;18.70;91.30
10384;DHT22;5238;43.508;4.980;2022-12-24T11:46:43;18.70;91.30
10384;DHT22;5238;43.508;4.980;2022-12-24T11:49:23;18.80;91.30
10384;DHT22;5238;43.508;4.980;2022-12-24T11:55:14;18.80;91.30
10384;DHT22;5238;43.508;4.980;2022-12-24T11:58:20;18.80;91.30
10384;DHT22;5238;43.508;4.980;2022-12-24T12:01:17;18.80;91.30
10384;DHT22;5238;43.508;4.980;2022-12-24T12:04:09;18.90;91.30
10384;DHT22;5238;43.508;4.980;2022-12-24T12:06:51;18.90;91.30
10384;DHT22;5238;43.508;4.980;2022-12-24T12:09:26;18.90;91.30
10384;DHT22;5238;43.508;4.980;2022-12-24T12:12:16;18.90;91.30
10384;DHT22;5238;43.508;4.980;2022-12-24T12:15:02;19.00;91.30
10384;DHT22;5238;43.508;4.980;2022-12-24T12:17:43;19.00;91.30
10384;DHT22;5238;43.508;4.980;2022-12-24T12:20:38;19.10;91.30
10384;DHT22;5238;43.508;4.980;2022-12-24T12:23:14;19.10;91.30
10384;DHT22;5238;43.508;4.980;2022-12-24T12:25:52;19.10;91.30
10384;DHT22;5238;43.508;4.980;2022-12-24T12:28:34;19.10;91.30
10384;DHT22;5238;43.508;4.980;2022-12-24T12:31:18;19.20;91.30
10384;DHT22;5238;43.508;4.980;2022-12-24T12:33:58;19.20;91.30
10384;DHT22;5238;43.508;4.980;2022-12-24T12:36:35;19.20;91.30
10384;DHT22;5238;43.508;4.980;2022-12-24T12:39:07;19.30;91.30
10384;DHT22;5238;43.508;4.980;2022-12-24T12:41:47;19.30;91.30
10384;DHT22;5238;43.508;4.980;2022-12-24T12:44:48;19.30;91.30
10384;DHT22;5238;43.508;4.980;2022-12-24T12:50:16;19.40;91.30
10384;DHT22;5238;43.508;4.980;2022-12-24T12:53:24;19.40;91.30
10384;DHT22;5238;43.508;4.980;2022-12-24T12:56:20;19.40;91.30
10384;DHT22;5238;43.508;4.980;2022-12-24T12:59:01;19.40;91.30
10384;DHT22;5238;43.508;4.980;2022-12-24T13:02:02;19.30;91.30
10384;DHT22;5238;43.508;4.980;2022-12-24T13:08:17;19.30;91.30
10384;DHT22;5238;43.508;4.980;2022-12-24T13:11:18;19.30;91.30
10384;DHT22;5238;43.508;4.980;2022-12-24T13:20:54;19.30;91.30
10384;DHT22;5238;43.508;4.980;2022-12-24T13:23:25;19.20;91.30
10384;DHT22;5238;43.508;4.980;2022-12-24T13:26:19;19.20;91.30
10384;DHT22;5238;43.508;4.980;2022-12-24T13:29:29;19.20;91.30
10384;DHT22;5238;43.508;4.980;2022-12-24T13:36:28;19.20;91.30
10384;DHT22;5238;43.508;4.980;2022-12-24T13:38:51;19.10;91.30
10384;DHT22;5238;43.508;4.980;2022-12-24T13:44:35;19.10;91.30
10384;DHT22;5238;43.508;4.980;2022-12-24T13:47:22;19.10;91.30
10384;DHT22;5238;43.508;4.980;2022-12-24T13:49:57;19.10;91.30
10384;DHT22;5238;43.508;4.980;2022-12-24T15:34:03;18.40;91.30
10384;DHT22;5238;43.508;4.980;2022-12-24T15:36:41;18.30;91.30
10384;DHT22;5238;43.508;4.980;2022-12-24T15:39:15;18.30;91.30
10384;DHT22;5238;43.508;4.980;2022-12-24T15:41:48;18.30;91.30
10384;DHT22;5238;43.508;4.980;2022-12-24T15:44:33;18.30;91.30
10384;DHT22;5238;43.508;4.980;2022-12-24T15:47:03;18.20;91.30
10384;DHT22;5238;43.508;4.980;2022-12-24T15:49:59;18.20;91.30
10384;DHT22;5238;43.508;4.980;2022-12-24T15:52:28;18.20;91.30
10384;DHT22;5238;43.508;4.980;2022-12-24T15:55:02;18.20;91.30
10384;DHT22;5238;43.508;4.980;2022-12-24T15:57:56;18.20;91.30
10384;DHT22;5238;43.508;4.980;2022-12-24T16:00:36;18.20;91.30
10384;DHT22;5238;43.508;4.980;2022-12-24T16:03:10;18.20;91.30
10384;DHT22;5238;43.508;4.980;2022-12-24T16:06:01;18.10;91.30
10384;DHT22;5238;43.508;4.980;2022-12-24T16:08:31;18.10;91.30
10384;DHT22;5238;43.508;4.980;2022-12-24T16:11:18;18.10;91.30
10384;DHT22;5238;43.508;4.980;2022-12-24T16:14:03;18.10;91.30
10384;DHT22;5238;43.508;4.980;2022-12-24T16:16:45;18.00;91.30
10384;DHT22;5238;43.508;4.980;2022-12-24T16:19:19;18.00;91.30
10384;DHT22;5238;43.508;4.980;2022-12-24T16:22:02;18.00;91.30
10384;DHT22;5238;43.508;4.980;2022-12-24T16:24:58;18.00;91.30
10384;DHT22;5238;43.508;4.980;2022-12-24T16:27:32;18.00;91.30
10384;DHT22;5238;43.508;4.980;2022-12-24T16:30:03;18.00;91.30
10384;DHT22;5238;43.508;4.980;2022-12-24T16:32:36;18.00;91.30
10384;DHT22;5238;43.508;4.980;2022-12-24T16:35:19;17.90;91.30
10384;DHT22;5238;43.508;4.980;2022-12-24T16:38:05;17.90;91.30
10384;DHT22;5238;43.508;4.980;2022-12-24T16:40:43;17.90;91.30
10384;DHT22;5238;43.508;4.980;2022-12-24T16:43:10;17.90;91.30
10384;DHT22;5238;43.508;4.980;2022-12-24T16:46:00;17.90;91.30
10384;DHT22;5238;43.508;4.980;2022-12-24T16:48:28;17.80;91.30
10384;DHT22;5238;43.508;4.980;2022-12-24T16:50:55;17.70;91.30
10384;DHT22;5238;43.508;4.980;2022-12-24T16:53:36;17.60;91.30
10384;DHT22;5238;43.508;4.980;2022-12-24T16:56:06;17.50;91.30
10384;DHT22;5238;43.508;4.980;2022-12-24T16:58:41;17.30;91.30
10384;DHT22;5238;43.508;4.980;2022-12-24T17:01:16;17.20;91.30
10384;DHT22;5238;43.508;4.980;2022-12-24T17:03:48;17.10;91.30
10384;DHT22;5238;43.508;4.980;2022-12-24T17:06:26;17.00;91.30
10384;DHT22;5238;43.508;4.980;2022-12-24T17:09:03;16.80;91.30
10384;DHT22;5238;43.508;4.980;2022-12-24T17:11:31;16.70;91.30
10384;DHT22;5238;43.508;4.980;2022-12-24T17:13:58;16.60;91.30
10384;DHT22;5238;43.508;4.980;2022-12-24T17:16:25;16.50;91.30
10384;DHT22;5238;43.508;4.980;2022-12-24T17:18:53;16.40;91.30
10384;DHT22;5238;43.508;4.980;2022-12-24T17:21:20;16.30;91.30
10384;DHT22;5238;43.508;4.980;2022-12-24T17:23:57;16.20;91.30
10384;DHT22;5238;43.508;4.980;2022-12-24T17:26:24;16.10;91.30
10384;DHT22;5238;43.508;4.980;2022-12-24T17:28:53;16.00;91.30
10384;DHT22;5238;43.508;4.980;2022-12-24T17:31:24;15.90;91.30
10384;DHT22;5238;43.508;4.980;2022-12-24T17:33:57;15.80;91.30
10384;DHT22;5238;43.508;4.980;2022-12-24T17:36:24;15.80;91.30
10384;DHT22;5238;43.508;4.980;2022-12-24T17:38:52;15.70;91.30
10384;DHT22;5238;43.508;4.980;2022-12-24T17:41:21;15.60;91.30
10384;DHT22;5238;43.508;4.980;2022-12-24T17:43:49;15.50;91.30
10384;DHT22;5238;43.508;4.980;2022-12-24T17:46:18;15.50;91.30
10384;DHT22;5238;43.508;4.980;2022-12-24T17:48:47;15.40;91.30
10384;DHT22;5238;43.508;4.980;2022-12-24T17:51:16;15.30;91.30
10384;DHT22;5238;43.508;4.980;2022-12-24T17:53:43;15.30;91.30
10384;DHT22;5238;43.508;4.980;2022-12-24T17:56:21;15.20;91.30
10384;DHT22;5238;43.508;4.980;2022-12-24T17:58:49;15.20;91.30
10384;DHT22;5238;43.508;4.980;2022-12-24T18:01:17;15.10;91.30
10384;DHT22;5238;43.508;4.980;2022-12-24T18:03:46;15.00;91.30
10384;DHT22;5238;43.508;4.980;2022-12-24T18:06:24;15.00;91.30
10384;DHT22;5238;43.508;4.980;2022-12-24T18:08:52;14.90;91.30
10384;DHT22;5238;43.508;4.980;2022-12-24T18:11:24;14.90;91.30
10384;DHT22;5238;43.508;4.980;2022-12-24T18:13:52;14.80;91.30
10384;DHT22;5238;43.508;4.980;2022-12-24T18:16:23;14.70;91.30
10384;DHT22;5238;43.508;4.980;2022-12-24T18:18:57;14.70;91.30
10384;DHT22;5238;43.508;4.980;2022-12-24T18:21:26;14.60;91.30
10384;DHT22;5238;43.508;4.980;2022-12-24T18:23:54;14.60;91.30
10384;DHT22;5238;43.508;4.980;2022-12-24T18:26:26;14.50;91.30
10384;DHT22;5238;43.508;4.980;2022-12-24T18:28:54;14.50;91.30
10384;DHT22;5238;43.508;4.980;2022-12-24T18:31:22;14.40;91.30
10384;DHT22;5238;43.508;4.980;2022-12-24T18:33:52;14.40;91.30
10384;DHT22;5238;43.508;4.980;2022-12-24T18:36:20;14.30;91.30
10384;DHT22;5238;43.508;4.980;2022-12-24T18:38:56;14.30;91.30
10384;DHT22;5238;43.508;4.980;2022-12-24T18:41:34;14.20;91.30
10384;DHT22;5238;43.508;4.980;2022-12-24T18:44:15;14.20;91.30
10384;DHT22;5238;43.508;4.980;2022-12-24T18:46:43;14.10;91.30
10384;DHT22;5238;43.508;4.980;2022-12-24T18:49:11;14.00;91.30
10384;DHT22;5238;43.508;4.980;2022-12-24T18:51:38;14.00;91.30
10384;DHT22;5238;43.508;4.980;2022-12-24T18:54:07;14.00;91.30
10384;DHT22;5238;43.508;4.980;2022-12-24T18:56:39;14.00;91.30
10384;DHT22;5238;43.508;4.980;2022-12-24T18:59:32;14.00;91.30
10384;DHT22;5238;43.508;4.980;2022-12-24T19:02:10;13.90;91.30
10384;DHT22;5238;43.508;4.980;2022-12-24T19:04:52;13.90;91.30
10384;DHT22;5238;43.508;4.980;2022-12-24T19:07:46;13.90;91.30
10384;DHT22;5238;43.508;4.980;2022-12-24T19:10:28;13.90;91.30
10384;DHT22;5238;43.508;4.980;2022-12-24T19:13:17;13.90;91.30
10384;DHT22;5238;43.508;4.980;2022-12-24T19:15:45;13.80;91.30
10384;DHT22;5238;43.508;4.980;2022-12-24T19:18:22;13.80;91.30